Time;durP1;ratioP1;P1;durP2;ratioP2;P2;SDS_P1;SDS_P2;PMS_P1;PMS_P2;Temp;Humidity;BMP_temperature;BMP_pressure;BME280_temperature;BME280_humidity;BME280_pressure;Samples;Min_cycle;Max_cycle;Signal;HPM_P1;HPM_P2
2023/08/31 05:32:44;;;;;;;6.30;2.10;;;;;;;16.55;71.96;100143.75;3135972;23;20278;-70
2023/08/31 05:42:41;;;;;;;7.90;2.57;;;;;;;16.57;72.10;100152.44;4938107;28;20319;-71
2023/08/31 05:45:21;;;;;;;8.27;2.30;;;;;;;16.59;72.02;100155.75;4931172;28;20703;-73
2023/08/31 05:48:04;;;;;;;5.63;2.10;;;;;;;16.59;72.06;100150.41;4937539;28;20211;-71
2023/08/31 05:50:33;;;;;;;8.80;2.77;;;;;;;16.55;72.14;100159.81;4928641;28;20210;-73
2023/08/31 05:56:56;;;;;;;11.63;2.50;;;;;;;16.83;71.72;100154.50;4906342;28;20219;-74
2023/08/31 05:59:52;;;;;;;7.33;2.83;;;;;;;16.86;71.77;100162.16;4935632;28;20669;-70
2023/08/31 06:02:26;;;;;;;5.97;2.17;;;;;;;16.87;71.66;100164.63;4938585;28;20215;-75
2023/08/31 06:07:35;;;;;;;6.33;2.17;;;;;;;16.91;71.30;100163.22;4933389;29;20223;-64
2023/08/31 06:10:03;;;;;;;8.37;2.30;;;;;;;16.97;70.63;100166.13;4935740;29;20235;-64
2023/08/31 06:12:32;;;;;;;10.97;2.53;;;;;;;17.03;70.50;100168.03;4936398;29;20240;-63
2023/08/31 06:15:01;;;;;;;8.17;2.33;;;;;;;17.02;70.72;100166.38;4936348;29;20251;-63
2023/08/31 06:17:28;;;;;;;5.07;2.10;;;;;;;17.02;70.05;100172.56;4935786;29;20292;-63
2023/08/31 06:19:58;;;;;;;8.03;3.10;;;;;;;17.02;70.06;100183.25;4935818;29;20557;-63
2023/08/31 06:22:26;;;;;;;8.07;2.97;;;;;;;17.00;70.50;100174.59;4936084;29;20208;-61
2023/08/31 06:24:54;;;;;;;6.80;2.50;;;;;;;16.96;70.05;100172.53;4937402;29;20216;-63
2023/08/31 06:27:21;;;;;;;5.87;2.00;;;;;;;16.95;70.34;100177.03;4935925;29;20307;-63
2023/08/31 06:29:49;;;;;;;8.33;2.33;;;;;;;16.91;69.99;100181.13;4935281;29;20208;-64
2023/08/31 06:32:17;;;;;;;10.23;2.43;;;;;;;16.90;70.54;100188.34;4935873;29;20208;-63
2023/08/31 06:34:45;;;;;;;7.73;2.60;;;;;;;16.88;70.57;100182.38;4935114;29;20271;-63
2023/08/31 06:37:14;;;;;;;10.37;2.80;;;;;;;16.88;70.65;100193.06;4935183;29;20583;-68
2023/08/31 06:39:41;;;;;;;16.50;4.37;;;;;;;16.85;70.41;100193.47;4935159;29;20230;-68
2023/08/31 06:42:09;;;;;;;14.27;4.13;;;;;;;16.87;70.54;100196.78;4925926;29;20959;-63
2023/08/31 06:44:37;;;;;;;29.77;7.37;;;;;;;16.86;71.25;100208.50;4916985;29;20211;-63
2023/08/31 06:47:05;;;;;;;52.73;9.13;;;;;;;16.85;71.38;100198.81;4919478;29;20295;-65
2023/08/31 06:49:33;;;;;;;30.10;5.43;;;;;;;16.86;71.86;100202.31;4914567;29;20548;-64
2023/08/31 06:52:02;;;;;;;26.33;5.90;;;;;;;16.85;71.97;100214.88;4917706;29;20315;-63
2023/08/31 06:54:34;;;;;;;24.03;5.80;;;;;;;16.91;71.73;100216.78;4918300;29;20212;-64
2023/08/31 06:57:02;;;;;;;9.47;2.77;;;;;;;16.93;71.71;100206.69;4919374;29;20280;-64
2023/08/31 06:59:30;;;;;;;17.27;3.13;;;;;;;17.02;71.36;100206.53;4918786;29;20214;-65
2023/08/31 07:01:58;;;;;;;8.90;2.47;;;;;;;17.12;71.14;100215.91;4916339;29;21476;-63
2023/08/31 07:04:28;;;;;;;6.57;2.00;;;;;;;17.23;70.80;100215.34;4917219;29;20208;-64
2023/08/31 07:06:55;;;;;;;9.30;2.60;;;;;;;17.28;70.61;100214.75;4931495;28;20302;-64
2023/08/31 07:09:23;;;;;;;6.57;2.20;;;;;;;17.31;69.90;100214.34;4936097;28;20432;-64
2023/08/31 07:11:52;;;;;;;6.07;2.10;;;;;;;17.35;69.87;100222.81;4937082;28;20212;-64
2023/08/31 07:14:20;;;;;;;6.17;2.07;;;;;;;17.36;69.14;100221.78;4938309;28;20330;-64
2023/08/31 07:16:48;;;;;;;7.60;2.10;;;;;;;17.37;69.95;100223.44;4939018;28;20249;-64
2023/08/31 07:19:15;;;;;;;9.93;2.47;;;;;;;17.37;69.41;100224.28;4936821;28;20239;-65
2023/08/31 07:21:43;;;;;;;6.67;1.90;;;;;;;17.40;68.53;100223.88;4936426;28;20294;-64
2023/08/31 07:24:11;;;;;;;5.90;2.03;;;;;;;17.37;68.32;100224.28;4935498;28;20310;-63
2023/08/31 07:26:38;;;;;;;7.00;1.77;;;;;;;17.34;68.84;100221.97;4936109;28;20212;-63
2023/08/31 07:29:07;;;;;;;7.67;1.77;;;;;;;17.36;68.60;100224.47;4937297;28;20246;-64
2023/08/31 07:31:35;;;;;;;6.17;2.00;;;;;;;17.39;68.84;100222.22;4937935;28;20239;-64
2023/08/31 07:34:04;;;;;;;8.97;2.30;;;;;;;17.46;69.04;100228.44;4934618;28;20757;-64
2023/08/31 07:36:32;;;;;;;5.27;2.00;;;;;;;17.58;68.58;100220.69;4931127;28;20243;-64
2023/08/31 07:38:59;;;;;;;6.90;1.97;;;;;;;17.70;67.25;100221.78;4935682;28;20281;-63
2023/08/31 07:41:27;;;;;;;6.93;2.00;;;;;;;17.84;66.69;100220.00;4934645;28;20314;-64
2023/08/31 07:43:55;;;;;;;8.93;2.00;;;;;;;17.95;66.09;100222.06;4935723;28;20219;-64
2023/08/31 07:46:33;;;;;;;9.40;1.90;;;;;;;18.08;66.85;100222.13;4938243;28;20242;-64
2023/08/31 07:49:01;;;;;;;7.87;2.20;;;;;;;18.18;65.64;100225.25;4937517;28;21181;-63
2023/08/31 07:51:29;;;;;;;9.23;2.07;;;;;;;18.27;64.91;100237.44;4933560;28;20270;-64
2023/08/31 07:53:56;;;;;;;6.43;1.60;;;;;;;18.37;64.30;100237.03;4937435;28;20260;-66
2023/08/31 07:56:24;;;;;;;5.50;1.70;;;;;;;18.50;64.35;100246.97;4934223;28;20238;-64
2023/08/31 07:58:52;;;;;;;7.53;2.03;;;;;;;18.65;64.14;100250.28;4936449;28;20274;-64
2023/08/31 08:01:20;;;;;;;5.47;1.80;;;;;;;18.73;63.11;100252.81;4936654;28;20222;-64
2023/08/31 08:03:49;;;;;;;9.57;2.37;;;;;;;18.83;62.48;100263.13;4934761;29;20203;-62
2023/08/31 08:06:17;;;;;;;4.23;1.70;;;;;;;18.97;62.03;100262.94;4935548;28;20829;-63
2023/08/31 08:08:45;;;;;;;7.40;2.03;;;;;;;19.00;60.45;100259.81;4933755;28;20313;-64
2023/08/31 08:11:13;;;;;;;7.63;1.67;;;;;;;18.94;61.21;100271.38;4937348;28;20576;-64
2023/08/31 08:13:40;;;;;;;7.33;2.10;;;;;;;18.98;61.16;100267.28;4937982;28;20211;-63
2023/08/31 08:16:08;;;;;;;10.07;1.97;;;;;;;18.98;60.91;100271.81;4938230;29;20275;-64
2023/08/31 08:18:36;;;;;;;7.00;2.00;;;;;;;19.09;60.93;100274.69;4933628;28;20655;-64
2023/08/31 08:21:05;;;;;;;6.70;1.83;;;;;;;19.32;60.07;100276.13;4934666;28;20790;-65
2023/08/31 08:23:33;;;;;;;4.73;1.67;;;;;;;19.54;59.61;100282.91;4937515;28;20260;-64
2023/08/31 08:26:01;;;;;;;9.63;2.30;;;;;;;19.71;58.95;100280.59;4936399;28;20230;-64
2023/08/31 08:28:29;;;;;;;8.70;2.20;;;;;;;19.89;58.72;100286.94;4940694;28;20219;-64
2023/08/31 08:30:57;;;;;;;8.03;2.27;;;;;;;20.06;57.76;100273.00;4940321;28;20275;-64
2023/08/31 08:33:24;;;;;;;6.17;2.20;;;;;;;20.22;56.89;100288.66;4940963;28;20207;-65
2023/08/31 08:35:52;;;;;;;6.97;2.07;;;;;;;20.35;56.68;100285.91;4938533;28;20255;-65
2023/08/31 08:38:22;;;;;;;5.93;1.80;;;;;;;20.51;56.17;100288.09;4939187;28;20212;-64
2023/08/31 08:40:49;;;;;;;7.27;2.00;;;;;;;20.64;56.11;100290.72;4939323;28;20221;-64
2023/08/31 08:43:24;;;;;;;5.60;1.70;;;;;;;20.72;54.84;100281.53;4942705;28;21123;-64
2023/08/31 08:45:52;;;;;;;4.27;1.73;;;;;;;20.86;54.74;100288.47;4939564;28;20210;-63
2023/08/31 08:48:21;;;;;;;5.17;1.67;;;;;;;21.01;53.90;100290.84;4938392;28;20222;-64
2023/08/31 08:50:50;;;;;;;5.13;1.90;;;;;;;21.13;52.72;100288.25;4940527;28;20681;-63
2023/08/31 08:53:17;;;;;;;6.40;2.20;;;;;;;21.26;52.76;100294.38;4940067;28;20215;-64
2023/08/31 08:55:46;;;;;;;7.00;2.00;;;;;;;21.42;52.65;100292.16;4939624;29;20765;-63
2023/08/31 08:58:14;;;;;;;4.20;2.03;;;;;;;21.56;51.19;100293.66;4938574;28;20208;-64
2023/08/31 09:00:43;;;;;;;4.50;1.80;;;;;;;21.82;50.19;100287.13;4938071;28;20216;-64
2023/08/31 09:03:11;;;;;;;9.33;2.30;;;;;;;21.89;50.71;100288.72;4940881;28;20209;-65
2023/08/31 09:05:39;;;;;;;6.53;1.77;;;;;;;21.98;49.63;100286.56;4939813;28;20364;-63
2023/08/31 09:08:10;;;;;;;5.15;1.73;;;;;;;22.18;49.58;100289.00;4936990;28;20200;-64
2023/08/31 09:10:38;;;;;;;5.77;1.63;;;;;;;22.31;48.16;100294.22;4940716;29;20214;-64
2023/08/31 09:13:09;;;;;;;6.65;1.58;;;;;;;22.62;47.62;100287.75;4938937;28;20239;-64
2023/08/31 09:15:38;;;;;;;4.20;1.75;;;;;;;22.80;46.72;100280.41;4938149;28;20212;-64
2023/08/31 09:18:05;;;;;;;4.82;1.80;;;;;;;22.97;46.89;100288.66;4937714;28;20232;-64
2023/08/31 09:20:43;;;;;;;5.10;1.88;;;;;;;23.20;46.42;100285.16;4937513;28;20226;-64
2023/08/31 09:23:11;;;;;;;5.70;1.80;;;;;;;23.37;45.66;100293.41;4940684;28;20663;-64
2023/08/31 09:25:42;;;;;;;4.45;1.90;;;;;;;23.58;45.97;100277.38;4940714;28;20216;-65
2023/08/31 09:28:13;;;;;;;7.03;1.48;;;;;;;23.67;44.57;100279.72;4938539;28;20350;-65
2023/08/31 09:30:41;;;;;;;5.80;2.00;;;;;;;23.78;43.43;100274.28;4938872;28;20282;-65
2023/08/31 09:33:10;;;;;;;5.50;1.52;;;;;;;23.96;42.95;100276.00;4938014;28;20211;-65
2023/08/31 09:35:41;;;;;;;3.90;1.50;;;;;;;24.01;42.32;100276.13;4937710;28;20227;-64
2023/08/31 09:38:10;;;;;;;2.72;1.50;;;;;;;24.09;42.17;100278.47;4940941;28;20318;-64
2023/08/31 09:40:38;;;;;;;3.95;1.63;;;;;;;24.08;42.54;100273.28;4938759;28;20218;-65
2023/08/31 09:43:06;;;;;;;4.15;1.92;;;;;;;23.87;43.39;100274.75;4935539;28;20236;-64
2023/08/31 09:45:36;;;;;;;5.68;1.75;;;;;;;23.54;43.50;100276.25;4939573;28;20212;-64
2023/08/31 09:48:07;;;;;;;4.05;1.60;;;;;;;23.20;43.16;100283.28;4937684;28;20218;-64
2023/08/31 09:50:36;;;;;;;4.45;1.60;;;;;;;22.81;44.35;100271.25;4938511;29;20215;-64
2023/08/31 09:53:05;;;;;;;4.00;1.65;;;;;;;22.53;44.32;100273.75;4935837;28;20212;-65
2023/08/31 09:55:34;;;;;;;2.65;1.13;;;;;;;22.53;44.26;100279.13;4937398;28;20588;-67
2023/08/31 09:58:03;;;;;;;5.25;1.70;;;;;;;23.53;42.49;100271.06;4935745;28;20231;-63
2023/08/31 10:00:44;;;;;;;4.53;1.70;;;;;;;24.05;40.75;100282.69;4937069;28;20210;-64
2023/08/31 10:03:15;;;;;;;4.00;1.52;;;;;;;23.77;42.23;100280.78;4937373;28;20714;-65
2023/08/31 10:05:49;;;;;;;5.22;1.58;;;;;;;23.45;40.33;100285.75;4938407;28;20302;-63
2023/08/31 10:08:18;;;;;;;4.05;1.90;;;;;;;23.11;40.79;100284.69;4940137;28;20214;-64
2023/08/31 10:10:47;;;;;;;7.55;1.73;;;;;;;23.00;40.89;100281.97;4936700;28;20208;-63
2023/08/31 10:13:15;;;;;;;4.32;1.40;;;;;;;23.49;40.83;100283.41;4939078;28;20299;-63
2023/08/31 10:15:45;;;;;;;12.68;8.10;;;;;;;24.54;38.66;100275.00;4934007;28;20239;-64
2023/08/31 10:18:13;;;;;;;4.43;1.98;;;;;;;24.20;38.58;100285.69;4937343;28;20318;-63
2023/08/31 10:20:45;;;;;;;4.07;1.70;;;;;;;23.91;39.01;100286.75;4935650;29;20626;-64
2023/08/31 10:23:13;;;;;;;3.70;1.58;;;;;;;24.99;37.67;100264.91;4937788;28;20625;-63
2023/08/31 10:26:01;;;;;;;4.20;1.60;;;;;;;24.70;38.33;100274.19;4937765;28;20215;-64
2023/08/31 10:28:29;;;;;;;4.97;1.50;;;;;;;24.00;38.62;100275.31;4940618;28;20658;-64
2023/08/31 10:31:04;;;;;;;3.20;1.60;;;;;;;23.53;39.71;100276.47;4939739;28;20317;-64
2023/08/31 10:33:33;;;;;;;5.13;1.95;;;;;;;23.22;40.03;100283.03;4938830;28;20222;-63
2023/08/31 10:36:01;;;;;;;4.18;1.58;;;;;;;22.90;40.67;100279.84;4935427;28;20212;-63
2023/08/31 10:38:31;;;;;;;4.80;1.73;;;;;;;22.69;41.29;100283.88;4938078;28;20231;-62
2023/08/31 10:41:04;;;;;;;5.68;1.70;;;;;;;22.46;41.42;100279.25;4937294;28;20207;-64
2023/08/31 10:43:45;;;;;;;5.03;1.48;;;;;;;22.31;41.34;100275.31;4940509;28;20298;-63
2023/08/31 10:46:34;;;;;;;4.15;1.60;;;;;;;22.25;41.38;100278.94;4938476;28;20215;-64
2023/08/31 10:49:14;;;;;;;3.70;1.38;;;;;;;22.10;42.22;100269.38;4927661;29;20602;-63
2023/08/31 10:51:44;;;;;;;6.07;1.63;;;;;;;22.01;42.22;100268.03;4937136;28;20208;-64
2023/08/31 10:54:14;;;;;;;3.95;1.60;;;;;;;21.98;42.32;100264.97;4935423;28;20208;-64
2023/08/31 10:57:05;;;;;;;7.85;1.50;;;;;;;21.84;41.67;100275.06;4937226;28;20254;-64
2023/08/31 10:59:43;;;;;;;5.05;1.60;;;;;;;21.72;40.92;100274.19;4938159;28;20203;-64
2023/08/31 11:02:28;;;;;;;5.25;1.70;;;;;;;21.65;40.23;100270.72;4935207;28;20903;-65
2023/08/31 11:05:00;;;;;;;2.90;1.23;;;;;;;21.61;40.28;100264.13;4935646;28;20247;-65
2023/08/31 11:07:29;;;;;;;4.30;1.80;;;;;;;21.59;40.42;100261.66;4937048;28;20224;-64
2023/08/31 11:10:12;;;;;;;6.00;1.70;;;;;;;21.60;40.26;100263.31;4936799;28;20560;-64
2023/08/31 11:12:41;;;;;;;5.85;1.83;;;;;;;21.50;40.76;100257.63;4934572;28;20219;-63
2023/08/31 11:15:11;;;;;;;8.57;2.05;;;;;;;21.62;40.42;100250.44;4936436;28;20626;-64
2023/08/31 11:17:41;;;;;;;5.82;1.80;;;;;;;21.70;41.07;100257.41;4935285;28;20235;-64
2023/08/31 11:20:13;;;;;;;8.70;2.15;;;;;;;21.72;41.24;100256.09;4936177;28;20222;-64
2023/08/31 11:22:42;;;;;;;3.83;1.40;;;;;;;21.92;41.23;100265.84;4935439;28;20235;-64
2023/08/31 11:25:12;;;;;;;5.65;1.95;;;;;;;22.48;40.35;100257.41;4939195;28;20211;-64
2023/08/31 11:27:41;;;;;;;4.70;1.90;;;;;;;26.14;35.76;100241.47;4935767;28;20215;-64
2023/08/31 11:30:15;;;;;;;6.45;2.10;;;;;;;28.19;31.43;100248.88;4934627;28;20581;-65
2023/08/31 11:32:51;;;;;;;5.32;1.95;;;;;;;28.18;31.30;100248.06;4940587;28;20218;-64
2023/08/31 11:35:20;;;;;;;3.90;1.58;;;;;;;27.15;32.40;100253.28;4937530;28;20232;-64
2023/08/31 11:37:51;;;;;;;4.57;2.08;;;;;;;26.98;33.58;100254.53;4936673;28;20238;-64
2023/08/31 11:40:19;;;;;;;4.40;1.60;;;;;;;26.70;34.07;100247.47;4938096;28;20295;-64
2023/08/31 11:42:49;;;;;;;4.93;1.63;;;;;;;25.78;33.81;100251.09;4937698;28;20286;-64
2023/08/31 11:45:17;;;;;;;8.20;2.10;;;;;;;24.95;35.19;100260.25;4939996;28;20216;-64
2023/08/31 11:47:45;;;;;;;5.95;1.90;;;;;;;24.50;36.80;100254.84;4939080;28;20299;-63
2023/08/31 11:50:15;;;;;;;5.90;1.95;;;;;;;23.86;38.22;100260.38;4936151;28;20602;-63
2023/08/31 11:52:43;;;;;;;5.80;1.67;;;;;;;23.33;38.60;100257.84;4936035;28;20209;-64
2023/08/31 11:55:12;;;;;;;9.95;2.28;;;;;;;22.86;39.26;100254.34;4936425;28;20243;-64
2023/08/31 11:57:41;;;;;;;7.72;2.10;;;;;;;22.52;40.76;100258.56;4938684;28;20244;-64
2023/08/31 12:00:10;;;;;;;7.03;1.83;;;;;;;22.23;42.04;100257.56;4937625;29;20209;-63
2023/08/31 12:02:38;;;;;;;6.28;2.20;;;;;;;21.99;43.33;100262.03;4940119;28;20243;-65
2023/08/31 12:05:07;;;;;;;6.60;2.33;;;;;;;21.80;42.67;100268.50;4940229;28;20212;-64
2023/08/31 12:07:42;;;;;;;8.57;2.45;;;;;;;21.64;42.84;100269.06;4942681;28;20678;-64
2023/08/31 12:10:10;;;;;;;7.57;1.95;;;;;;;21.57;43.07;100262.94;4941604;28;20322;-65
2023/08/31 12:12:38;;;;;;;6.75;2.20;;;;;;;21.59;43.97;100267.06;4940946;28;20261;-64
2023/08/31 12:15:07;;;;;;;7.80;2.58;;;;;;;21.52;43.28;100260.09;4942814;28;20208;-64
2023/08/31 12:17:40;;;;;;;9.18;2.50;;;;;;;21.48;43.79;100265.09;4941212;28;20223;-63
2023/08/31 12:20:09;;;;;;;7.22;2.08;;;;;;;21.42;43.56;100270.56;4946977;28;20215;-64
2023/08/31 12:22:37;;;;;;;8.32;2.50;;;;;;;21.33;43.82;100262.78;4942843;28;20212;-64
2023/08/31 12:25:07;;;;;;;6.47;2.88;;;;;;;21.73;43.61;100255.06;4941258;28;20211;-64
2023/08/31 12:27:35;;;;;;;9.00;2.28;;;;;;;21.87;43.63;100255.72;4941443;28;20224;-65
2023/08/31 12:30:03;;;;;;;5.88;2.00;;;;;;;21.98;44.19;100257.69;4939356;28;20218;-64
2023/08/31 12:32:31;;;;;;;8.70;2.50;;;;;;;22.16;43.24;100254.13;4940192;28;20708;-64
2023/08/31 12:34:58;;;;;;;6.72;2.25;;;;;;;22.15;43.97;100257.88;4940562;28;20211;-65
2023/08/31 12:37:26;;;;;;;7.22;2.20;;;;;;;22.02;44.53;100253.47;4942292;28;20220;-66
2023/08/31 12:39:54;;;;;;;9.07;2.50;;;;;;;21.94;44.78;100253.75;4940753;28;20902;-64
2023/08/31 12:42:23;;;;;;;5.00;2.28;;;;;;;21.93;44.02;100272.88;4941485;28;20318;-64
2023/08/31 12:44:51;;;;;;;7.55;2.10;;;;;;;21.84;42.09;100268.84;4935860;29;20239;-64
2023/08/31 12:47:19;;;;;;;6.72;2.05;;;;;;;21.73;42.52;100268.53;4939659;28;20266;-65
2023/08/31 12:49:47;;;;;;;8.10;2.00;;;;;;;21.75;42.12;100271.03;4940640;28;20219;-64
2023/08/31 12:52:15;;;;;;;9.57;1.98;;;;;;;21.84;41.93;100272.38;4941326;28;20656;-65
2023/08/31 12:54:44;;;;;;;4.53;1.70;;;;;;;21.91;42.28;100262.31;4940453;28;20229;-67
2023/08/31 12:57:11;;;;;;;7.47;2.20;;;;;;;21.97;42.49;100258.75;4938724;28;20295;-62
2023/08/31 12:59:41;;;;;;;8.07;2.30;;;;;;;22.05;42.90;100254.91;4938840;28;20264;-64
2023/08/31 13:02:11;;;;;;;6.70;2.20;;;;;;;22.02;43.04;100255.34;4939974;28;20208;-63
2023/08/31 13:04:40;;;;;;;7.47;2.30;;;;;;;21.94;42.36;100245.66;4942213;28;20235;-64
2023/08/31 13:07:10;;;;;;;4.10;1.90;;;;;;;21.87;42.75;100253.03;4941617;28;20843;-65
2023/08/31 13:09:38;;;;;;;12.17;2.30;;;;;;;21.81;43.69;100255.81;4941346;28;20275;-64
2023/08/31 13:12:06;;;;;;;7.55;2.28;;;;;;;21.76;43.41;100259.19;4942283;28;21052;-64
2023/08/31 13:14:34;;;;;;;8.00;2.67;;;;;;;21.80;44.07;100255.00;4942412;28;20678;-64
2023/08/31 13:17:03;;;;;;;5.93;2.30;;;;;;;21.86;43.97;100250.56;4941155;28;20218;-66
2023/08/31 13:19:31;;;;;;;7.63;2.40;;;;;;;21.84;43.25;100253.47;4939792;28;20260;-65
2023/08/31 13:21:59;;;;;;;5.50;2.03;;;;;;;21.96;43.20;100246.28;4940368;28;20216;-66
2023/08/31 13:24:27;;;;;;;6.85;2.20;;;;;;;21.92;43.42;100245.06;4939138;28;20259;-64
2023/08/31 13:26:55;;;;;;;9.13;2.13;;;;;;;21.87;43.36;100253.03;4939598;28;20215;-63
2023/08/31 13:29:23;;;;;;;9.38;2.20;;;;;;;21.79;43.72;100250.66;4938631;28;20211;-65
2023/08/31 13:31:50;;;;;;;7.82;2.50;;;;;;;21.75;43.39;100244.84;4937085;28;20215;-65
2023/08/31 13:34:19;;;;;;;7.05;2.38;;;;;;;21.76;43.45;100253.78;4941298;28;20228;-65
2023/08/31 13:36:47;;;;;;;6.22;2.58;;;;;;;21.73;43.54;100256.91;4934942;28;20750;-63
2023/08/31 13:39:16;;;;;;;5.65;2.03;;;;;;;21.74;43.31;100247.78;4941345;28;20228;-65
2023/08/31 13:41:45;;;;;;;5.28;2.25;;;;;;;21.77;43.42;100247.34;4938718;28;20235;-65
2023/08/31 13:44:13;;;;;;;9.20;2.55;;;;;;;21.83;44.29;100245.59;4939714;28;20214;-65
2023/08/31 13:46:41;;;;;;;11.30;2.35;;;;;;;21.85;44.29;100244.31;4939492;28;20220;-64
2023/08/31 13:49:09;;;;;;;6.47;2.15;;;;;;;21.89;44.31;100240.13;4940516;28;20212;-64
2023/08/31 13:51:38;;;;;;;6.43;2.22;;;;;;;21.93;43.99;100235.91;4941305;28;20221;-64
2023/08/31 13:54:06;;;;;;;8.63;2.25;;;;;;;21.90;44.24;100230.97;4937565;28;20199;-65
2023/08/31 13:56:34;;;;;;;7.13;2.58;;;;;;;21.90;44.32;100233.66;4938177;28;20961;-65
2023/08/31 13:59:02;;;;;;;5.68;2.42;;;;;;;21.95;44.46;100231.13;4941365;28;20388;-64
2023/08/31 14:01:31;;;;;;;4.97;1.98;;;;;;;22.03;43.84;100222.72;4938410;28;20318;-66
2023/08/31 14:03:59;;;;;;;9.50;2.33;;;;;;;21.91;43.97;100238.00;4939056;28;20280;-65
2023/08/31 14:06:27;;;;;;;7.00;2.30;;;;;;;21.82;44.20;100227.75;4939194;28;20306;-65
2023/08/31 14:08:58;;;;;;;6.78;2.15;;;;;;;21.76;44.22;100235.72;4939978;28;20742;-64
2023/08/31 14:11:29;;;;;;;6.22;2.35;;;;;;;21.70;44.33;100241.19;4941629;28;20995;-64
2023/08/31 14:14:05;;;;;;;7.40;2.53;;;;;;;21.72;44.24;100239.09;4940354;28;20668;-67
2023/08/31 14:16:36;;;;;;;6.40;2.15;;;;;;;21.69;44.98;100228.75;4940520;28;22147;-64
2023/08/31 14:19:04;;;;;;;5.15;1.92;;;;;;;21.67;45.10;100230.84;4939173;28;20220;-65
2023/08/31 14:21:32;;;;;;;7.90;2.20;;;;;;;21.69;44.89;100237.69;4937979;28;20244;-66
2023/08/31 14:24:01;;;;;;;7.13;2.15;;;;;;;21.75;44.83;100230.53;4936561;28;20310;-64
2023/08/31 14:26:29;;;;;;;5.18;2.15;;;;;;;21.80;44.68;100230.72;4939713;28;20298;-65
2023/08/31 14:28:57;;;;;;;7.47;2.97;;;;;;;21.78;44.49;100225.53;4939186;28;20222;-64
2023/08/31 14:31:24;;;;;;;8.07;2.28;;;;;;;21.77;44.36;100234.66;4938663;28;20271;-64
2023/08/31 14:33:53;;;;;;;9.23;2.70;;;;;;;21.74;44.52;100239.69;4939955;28;20211;-65
2023/08/31 14:36:21;;;;;;;6.03;2.07;;;;;;;21.88;43.84;100238.47;4934656;28;20221;-65
2023/08/31 14:38:49;;;;;;;5.77;2.17;;;;;;;21.77;44.85;100239.25;4940830;28;20204;-66
2023/08/31 14:41:18;;;;;;;5.17;2.00;;;;;;;21.76;44.65;100240.28;4940140;28;21153;-65
2023/08/31 14:43:45;;;;;;;8.37;2.40;;;;;;;21.78;45.05;100232.78;4936983;28;20295;-65
2023/08/31 14:46:13;;;;;;;7.50;2.30;;;;;;;21.82;44.69;100238.53;4939453;28;20208;-64
2023/08/31 14:48:41;;;;;;;7.05;2.25;;;;;;;21.86;43.99;100235.19;4938583;28;20209;-66
2023/08/31 14:51:09;;;;;;;6.78;2.15;;;;;;;21.76;44.11;100240.28;4938225;28;20247;-65
2023/08/31 14:53:38;;;;;;;8.77;2.22;;;;;;;21.71;44.37;100243.69;4939189;28;20716;-65
2023/08/31 14:56:06;;;;;;;5.13;1.90;;;;;;;21.70;44.69;100242.03;4938099;28;20540;-66
2023/08/31 14:58:35;;;;;;;7.38;2.35;;;;;;;21.67;44.51;100237.06;4938893;28;20351;-65
2023/08/31 15:01:03;;;;;;;10.90;2.30;;;;;;;21.65;44.64;100247.25;4939327;28;20274;-68
2023/08/31 15:03:31;;;;;;;6.18;2.20;;;;;;;21.67;44.56;100237.06;4937083;28;20203;-65
2023/08/31 15:05:59;;;;;;;5.73;2.20;;;;;;;21.67;44.58;100230.84;4942404;28;20667;-65
2023/08/31 15:08:36;;;;;;;5.85;2.55;;;;;;;21.66;44.64;100229.19;4938088;28;20220;-65
2023/08/31 15:11:04;;;;;;;5.95;2.78;;;;;;;21.73;44.13;100224.53;4939514;28;20623;-64
2023/08/31 15:13:32;;;;;;;7.03;2.50;;;;;;;21.63;44.70;100221.56;4939398;28;20270;-65
2023/08/31 15:16:01;;;;;;;6.63;2.10;;;;;;;21.60;44.61;100222.84;4939629;28;20223;-65
2023/08/31 15:18:29;;;;;;;9.50;2.50;;;;;;;21.62;44.33;100223.44;4939426;28;20224;-64
2023/08/31 15:20:57;;;;;;;5.93;2.15;;;;;;;21.61;44.97;100220.97;4936195;28;20255;-66
2023/08/31 15:23:25;;;;;;;6.88;2.30;;;;;;;21.63;44.85;100230.50;4938075;28;20204;-65
2023/08/31 15:25:52;;;;;;;9.70;2.92;;;;;;;21.61;45.41;100226.38;4938195;28;20213;-66
2023/08/31 15:28:20;;;;;;;7.00;2.10;;;;;;;21.61;44.34;100227.19;4938478;28;20208;-65
2023/08/31 15:30:48;;;;;;;6.03;2.33;;;;;;;21.61;44.09;100223.66;4939625;28;20218;-65
2023/08/31 15:33:17;;;;;;;6.43;2.20;;;;;;;21.65;43.04;100227.53;4942724;28;20302;-65
2023/08/31 15:35:45;;;;;;;7.67;2.40;;;;;;;21.63;42.96;100226.97;4939805;28;20234;-66
2023/08/31 15:38:12;;;;;;;7.60;2.40;;;;;;;21.62;43.28;100228.03;4943134;28;20212;-64
2023/08/31 15:40:47;;;;;;;5.53;2.43;;;;;;;21.60;43.36;100230.94;4940282;28;20239;-65
2023/08/31 15:43:18;;;;;;;7.90;2.75;;;;;;;21.62;43.21;100236.13;4941162;28;20231;-64
2023/08/31 15:45:49;;;;;;;6.60;2.47;;;;;;;21.56;43.59;100234.28;4941619;28;20208;-64
2023/08/31 15:48:18;;;;;;;8.18;2.45;;;;;;;21.54;43.64;100236.41;4938886;28;20211;-64
2023/08/31 15:50:46;;;;;;;6.63;1.90;;;;;;;21.50;43.92;100241.44;4940344;29;20294;-63
2023/08/31 15:53:13;;;;;;;3.87;1.63;;;;;;;21.48;44.00;100231.91;4939157;28;20642;-64
2023/08/31 15:55:41;;;;;;;8.05;2.58;;;;;;;21.42;43.80;100230.13;4942085;28;20676;-63
2023/08/31 15:58:09;;;;;;;5.03;2.58;;;;;;;21.39;44.58;100244.88;4941614;28;20985;-66
2023/08/31 16:00:37;;;;;;;5.60;1.95;;;;;;;21.34;44.21;100242.03;4942842;28;20246;-65
2023/08/31 16:03:06;;;;;;;8.57;2.30;;;;;;;21.30;44.05;100241.63;4941452;28;20209;-64
2023/08/31 16:05:35;;;;;;;5.33;2.00;;;;;;;21.28;44.51;100248.31;4938719;28;20203;-63
2023/08/31 16:08:06;;;;;;;7.17;2.40;;;;;;;21.25;44.80;100252.28;4937985;28;20254;-64
2023/08/31 16:10:34;;;;;;;18.13;2.43;;;;;;;21.22;45.20;100241.94;4937853;28;20807;-63
2023/08/31 16:13:02;;;;;;;8.10;2.10;;;;;;;21.20;45.56;100252.09;4942559;28;20304;-64
2023/08/31 16:15:30;;;;;;;11.53;2.23;;;;;;;21.15;45.78;100251.94;4938927;28;20322;-64
2023/08/31 16:17:58;;;;;;;6.70;2.27;;;;;;;21.15;46.07;100248.41;4937419;28;20263;-64
2023/08/31 16:20:26;;;;;;;10.00;2.70;;;;;;;21.12;46.10;100246.97;4940192;28;20975;-64
2023/08/31 16:22:54;;;;;;;6.40;2.10;;;;;;;21.08;47.21;100248.47;4938295;28;20218;-64
2023/08/31 16:25:23;;;;;;;9.53;2.77;;;;;;;21.06;46.66;100253.25;4940374;28;20275;-64
2023/08/31 16:27:51;;;;;;;8.30;3.40;;;;;;;21.02;47.13;100249.38;4939033;28;20212;-64
2023/08/31 16:30:19;;;;;;;7.53;2.43;;;;;;;20.98;47.29;100243.59;4940452;28;20690;-64
2023/08/31 16:32:47;;;;;;;10.43;2.37;;;;;;;20.95;47.66;100249.41;4943081;28;20925;-64
2023/08/31 16:35:16;;;;;;;6.90;2.40;;;;;;;20.94;47.87;100250.44;4942234;28;20302;-64
2023/08/31 16:37:43;;;;;;;7.03;2.30;;;;;;;20.96;48.14;100245.69;4941929;28;20220;-64
2023/08/31 16:40:14;;;;;;;9.53;2.43;;;;;;;20.93;48.21;100248.00;4941989;28;20386;-66
2023/08/31 16:42:42;;;;;;;8.47;2.33;;;;;;;20.90;48.29;100251.97;4939687;28;20979;-64
2023/08/31 16:45:10;;;;;;;9.80;2.83;;;;;;;20.87;48.59;100255.09;4940144;28;20244;-64
2023/08/31 16:47:38;;;;;;;6.77;2.27;;;;;;;20.86;48.55;100249.91;4942836;28;20211;-64
2023/08/31 16:50:07;;;;;;;6.27;2.43;;;;;;;20.86;49.03;100255.28;4937733;28;20629;-64
2023/08/31 16:52:34;;;;;;;8.73;2.90;;;;;;;20.83;48.86;100258.44;4940108;28;20291;-64
2023/08/31 16:55:03;;;;;;;6.97;2.77;;;;;;;20.82;49.31;100256.78;4938581;28;20235;-65
2023/08/31 16:57:32;;;;;;;7.80;2.47;;;;;;;20.84;48.57;100260.09;4934707;29;20207;-64
2023/08/31 17:00:00;;;;;;;6.93;2.37;;;;;;;20.79;49.70;100259.91;4941087;28;20219;-63
2023/08/31 17:02:30;;;;;;;8.90;2.77;;;;;;;20.77;50.16;100267.38;4939574;28;20207;-65
2023/08/31 17:04:58;;;;;;;5.77;2.23;;;;;;;20.74;50.77;100274.06;4940673;28;20215;-64
2023/08/31 17:07:26;;;;;;;8.17;2.43;;;;;;;20.73;50.78;100271.59;4939669;28;20306;-65
2023/08/31 17:09:55;;;;;;;6.80;2.33;;;;;;;20.71;51.35;100261.03;4940178;28;20223;-65
2023/08/31 17:12:22;;;;;;;6.77;2.30;;;;;;;20.65;51.62;100262.72;4939912;28;20587;-64
2023/08/31 17:14:51;;;;;;;5.47;2.43;;;;;;;20.65;51.73;100270.00;4940320;28;20290;-66
2023/08/31 17:17:19;;;;;;;10.80;2.70;;;;;;;20.60;52.50;100262.53;4937532;28;20682;-65
2023/08/31 17:19:47;;;;;;;8.30;2.50;;;;;;;20.57;53.25;100263.00;4937547;28;20223;-64